createdAt,value
2022-11-26T00:00:57.318Z,46.60
2022-11-26T00:01:57.388Z,47.83
2022-11-26T00:02:57.428Z,47.83
2022-11-26T00:03:57.308Z,46.58
2022-11-26T00:04:57.276Z,47.56
2022-11-26T00:05:57.743Z,49.50
2022-11-26T00:06:57.288Z,52.91
2022-11-26T00:07:57.388Z,48.05
2022-11-26T00:08:57.284Z,46.54
2022-11-26T00:09:57.251Z,48.15
2022-11-26T00:10:57.255Z,51.11
2022-11-26T00:11:57.250Z,50.08
2022-11-26T00:12:57.252Z,48.52
2022-11-26T00:13:57.272Z,47.70
2022-11-26T00:14:57.296Z,48.25
2022-11-26T00:15:57.227Z,46.13
2022-11-26T00:16:57.289Z,46.72
2022-11-26T00:17:57.206Z,47.09
2022-11-26T00:18:57.228Z,47.06
2022-11-26T00:19:57.194Z,48.04
2022-11-26T00:20:57.753Z,47.77
2022-11-26T00:21:57.808Z,46.64
2022-11-26T00:22:57.173Z,47.52
2022-11-26T00:23:57.181Z,48.11
2022-11-26T00:24:57.170Z,53.37
2022-11-26T00:25:57.140Z,51.79
2022-11-26T00:26:57.163Z,47.50
2022-11-26T00:27:57.136Z,48.25
2022-11-26T00:28:57.152Z,47.34
2022-11-26T00:29:57.139Z,47.42
2022-11-26T00:30:57.130Z,47.33
2022-11-26T00:31:57.212Z,48.47
2022-11-26T00:32:57.115Z,47.57
2022-11-26T00:33:57.933Z,49.44
2022-11-26T00:34:57.132Z,51.92
2022-11-26T00:35:57.073Z,48.84
2022-11-26T00:36:57.076Z,47.78
2022-11-26T00:37:57.072Z,52.35
2022-11-26T00:38:57.073Z,50.27
2022-11-26T00:39:57.061Z,49.39
2022-11-26T00:40:57.069Z,47.35
2022-11-26T00:41:57.035Z,48.05
2022-11-26T00:43:01.430Z,47.91
2022-11-26T00:43:57.020Z,47.38
2022-11-26T00:44:57.020Z,47.99
2022-11-26T00:45:57.108Z,53.56
2022-11-26T00:46:57.012Z,56.36
2022-11-26T00:47:57.007Z,48.84
2022-11-26T00:48:58.720Z,47.21
2022-11-26T00:49:56.982Z,48.26
2022-11-26T00:50:57.022Z,44.89
2022-11-26T00:51:56.970Z,45.70
2022-11-26T00:52:56.972Z,48.14
2022-11-26T00:53:56.970Z,57.97
2022-11-26T00:54:57.890Z,48.69
2022-11-26T00:55:56.940Z,47.28
2022-11-26T00:56:56.946Z,48.01
2022-11-26T00:57:56.940Z,55.30
2022-11-26T00:58:56.931Z,52.49
2022-11-26T00:59:56.942Z,47.89
2022-11-26T01:00:57.023Z,48.94
2022-11-26T01:01:56.984Z,47.47
2022-11-26T01:02:57.045Z,52.42
2022-11-26T01:03:56.901Z,53.72
2022-11-26T01:04:56.897Z,49.03
2022-11-26T01:05:56.911Z,47.32
2022-11-26T01:06:56.901Z,46.56
2022-11-26T01:07:56.959Z,47.36
2022-11-26T01:08:56.883Z,47.51
2022-11-26T01:09:56.849Z,47.00
2022-11-26T01:10:58.133Z,45.73
2022-11-26T01:11:56.851Z,46.16
2022-11-26T01:12:56.852Z,49.12
2022-11-26T01:13:56.825Z,52.30
2022-11-26T01:14:56.841Z,55.67
2022-11-26T01:15:56.816Z,57.53
2022-11-26T01:16:56.938Z,54.29
2022-11-26T01:17:56.813Z,48.32
2022-11-26T01:18:56.807Z,47.26
2022-11-26T01:19:56.808Z,46.64
2022-11-26T01:20:56.805Z,45.44
2022-11-26T01:21:57.671Z,46.85
2022-11-26T01:22:56.818Z,45.23
2022-11-26T01:23:56.758Z,45.44
2022-11-26T01:24:56.763Z,45.48
2022-11-26T01:25:56.770Z,46.08
2022-11-26T01:26:56.778Z,46.10
2022-11-26T01:27:56.734Z,46.95
2022-11-26T01:28:56.735Z,48.05
2022-11-26T01:29:56.735Z,47.23
2022-11-26T01:30:56.734Z,46.91
2022-11-26T01:31:56.802Z,45.47
2022-11-26T01:32:56.726Z,45.91
2022-11-26T01:33:56.702Z,46.70
2022-11-26T01:34:56.712Z,45.19
2022-11-26T01:35:56.681Z,45.57
2022-11-26T01:36:56.691Z,45.78
2022-11-26T01:37:56.681Z,45.97
2022-11-26T01:38:56.713Z,45.25
2022-11-26T01:39:56.670Z,45.84
2022-11-26T01:40:56.673Z,46.88
2022-11-26T01:41:57.568Z,46.97
2022-11-26T01:42:56.659Z,45.99
2022-11-26T01:43:57.141Z,46.98
2022-11-26T01:44:56.634Z,45.65
2022-11-26T01:45:56.682Z,45.61
2022-11-26T01:46:56.638Z,47.58
2022-11-26T01:47:56.631Z,47.69
2022-11-26T01:48:56.622Z,47.14
2022-11-26T01:49:56.608Z,46.16
2022-11-26T01:50:56.612Z,45.88
2022-11-26T01:51:56.583Z,45.42
2022-11-26T01:52:57.495Z,45.68
2022-11-26T01:53:56.579Z,45.95
2022-11-26T01:54:56.593Z,47.02
2022-11-26T01:55:56.678Z,46.76
2022-11-26T01:56:56.579Z,47.12
2022-11-26T01:57:57.016Z,45.96
2022-11-26T01:58:56.542Z,47.08
2022-11-26T01:59:56.541Z,48.88
2022-11-26T02:00:56.572Z,47.14
2022-11-26T02:01:56.547Z,47.95
2022-11-26T02:02:56.535Z,47.50
2022-11-26T02:03:56.505Z,47.88
2022-11-26T02:04:57.507Z,47.31
2022-11-26T02:05:56.509Z,46.02
2022-11-26T02:06:56.501Z,47.63
2022-11-26T02:07:56.588Z,45.94
2022-11-26T02:08:56.494Z,45.49
2022-11-26T02:09:56.465Z,46.34
2022-11-26T02:10:56.894Z,46.88
2022-11-26T02:11:56.451Z,46.49
2022-11-26T02:12:56.462Z,60.35
2022-11-26T02:13:56.713Z,51.95
2022-11-26T02:14:56.459Z,47.41
2022-11-26T02:15:57.631Z,45.78
2022-11-26T02:16:56.551Z,45.76
2022-11-26T02:17:56.426Z,45.16
2022-11-26T02:18:56.414Z,46.86
2022-11-26T02:19:56.444Z,48.24
2022-11-26T02:20:57.479Z,47.49
2022-11-26T02:21:56.388Z,48.25
2022-11-26T02:22:56.408Z,45.42
2022-11-26T02:23:56.374Z,47.08
2022-11-26T02:24:56.384Z,52.35
2022-11-26T02:25:56.383Z,53.33
2022-11-26T02:26:56.392Z,48.37
2022-11-26T02:27:56.378Z,46.26
2022-11-26T02:28:56.561Z,47.27
2022-11-26T02:29:56.344Z,48.91
2022-11-26T02:30:56.338Z,47.16
2022-11-26T02:31:56.468Z,48.91
2022-11-26T02:32:56.341Z,48.15
2022-11-26T02:33:56.311Z,48.51
2022-11-26T02:34:56.327Z,47.42
2022-11-26T02:35:56.297Z,46.88
2022-11-26T02:36:57.186Z,47.86
2022-11-26T02:37:56.299Z,45.77
2022-11-26T02:38:56.285Z,46.30
2022-11-26T02:39:56.284Z,45.34
2022-11-26T02:40:56.290Z,46.16
2022-11-26T02:41:56.272Z,47.70
2022-11-26T02:42:56.296Z,48.18
2022-11-26T02:43:56.243Z,47.92
2022-11-26T02:44:56.243Z,47.28
2022-11-26T02:45:56.338Z,48.40
2022-11-26T02:46:56.226Z,48.98
2022-11-26T02:47:56.259Z,50.30
2022-11-26T02:48:56.222Z,47.63
2022-11-26T02:49:56.210Z,47.91
2022-11-26T02:50:56.217Z,49.37
2022-11-26T02:51:56.200Z,53.49
2022-11-26T02:52:56.185Z,59.13
2022-11-26T02:53:56.202Z,49.77
2022-11-26T02:54:56.172Z,45.61
2022-11-26T02:55:56.209Z,44.79
2022-11-26T02:56:56.169Z,45.37
2022-11-26T02:57:56.163Z,47.31
2022-11-26T02:58:56.177Z,47.95
2022-11-26T02:59:56.147Z,47.63
2022-11-26T03:00:56.182Z,46.37
2022-11-26T03:01:56.185Z,47.07
2022-11-26T03:02:56.148Z,46.31
2022-11-26T03:03:56.191Z,46.34
2022-11-26T03:04:56.102Z,45.45
2022-11-26T03:05:56.121Z,45.34
2022-11-26T03:06:56.090Z,44.90
2022-11-26T03:07:56.179Z,45.96
2022-11-26T03:08:56.108Z,46.24
2022-11-26T03:09:56.082Z,46.31
2022-11-26T03:10:56.076Z,53.92
2022-11-26T03:11:56.202Z,55.92
2022-11-26T03:12:56.048Z,46.62
2022-11-26T03:13:56.066Z,45.81
2022-11-26T03:14:56.064Z,45.51
2022-11-26T03:15:56.055Z,45.94
2022-11-26T03:16:56.127Z,54.68
2022-11-26T03:17:56.967Z,53.27
2022-11-26T03:18:56.007Z,47.88
2022-11-26T03:19:56.413Z,46.82
2022-11-26T03:20:56.003Z,48.30
2022-11-26T03:21:56.002Z,46.02
2022-11-26T03:22:55.989Z,45.39
2022-11-26T03:23:55.979Z,46.56
2022-11-26T03:24:56.279Z,58.41
2022-11-26T03:25:57.625Z,48.32
2022-11-26T03:26:55.977Z,46.36
2022-11-26T03:27:55.963Z,49.17
2022-11-26T03:28:55.957Z,47.51
2022-11-26T03:29:56.660Z,46.24
2022-11-26T03:30:55.963Z,46.53
2022-11-26T03:31:56.043Z,45.35
2022-11-26T03:32:55.935Z,48.17
2022-11-26T03:33:55.920Z,45.89
2022-11-26T03:34:55.908Z,46.12
2022-11-26T03:35:55.907Z,48.13
2022-11-26T03:36:55.912Z,47.86
2022-11-26T03:37:55.932Z,47.73
2022-11-26T03:38:55.899Z,47.07
2022-11-26T03:39:55.880Z,50.63
2022-11-26T03:40:55.979Z,50.45
2022-11-26T03:41:55.867Z,45.33
2022-11-26T03:42:55.859Z,45.78
2022-11-26T03:43:56.600Z,51.36
2022-11-26T03:44:55.855Z,52.10
2022-11-26T03:45:55.923Z,44.76
2022-11-26T03:46:55.878Z,47.31
2022-11-26T03:47:55.827Z,44.97
2022-11-26T03:48:55.821Z,45.17
2022-11-26T03:49:55.814Z,46.88
2022-11-26T03:50:55.804Z,45.74
2022-11-26T03:51:55.790Z,53.87
2022-11-26T03:52:55.816Z,61.91
2022-11-26T03:53:55.775Z,48.98
2022-11-26T03:54:55.791Z,46.87
2022-11-26T03:55:56.453Z,47.54
2022-11-26T03:56:55.765Z,45.77
2022-11-26T03:57:55.766Z,46.13
2022-11-26T03:58:55.752Z,46.34
2022-11-26T03:59:55.738Z,46.10
2022-11-26T04:00:55.847Z,48.47
2022-11-26T04:01:56.729Z,48.62
2022-11-26T04:02:55.876Z,46.98
2022-11-26T04:03:55.731Z,46.41
2022-11-26T04:04:55.723Z,45.39
2022-11-26T04:05:55.825Z,46.80
2022-11-26T04:06:55.716Z,47.84
2022-11-26T04:07:55.834Z,45.54
2022-11-26T04:08:55.961Z,47.01
2022-11-26T04:09:55.690Z,47.62
2022-11-26T04:10:55.676Z,46.16
2022-11-26T04:11:55.659Z,47.27
2022-11-26T04:12:55.678Z,50.71
2022-11-26T04:13:57.214Z,47.70
2022-11-26T04:14:55.671Z,47.41
2022-11-26T04:15:55.653Z,47.53
2022-11-26T04:16:55.712Z,45.95
2022-11-26T04:17:55.638Z,46.61
2022-11-26T04:18:55.665Z,50.30
2022-11-26T04:19:55.619Z,49.61
2022-11-26T04:20:55.626Z,50.34
2022-11-26T04:21:55.611Z,48.33
2022-11-26T04:22:55.602Z,48.53
2022-11-26T04:23:55.584Z,48.13
2022-11-26T04:24:55.729Z,53.38
2022-11-26T04:25:55.639Z,49.77
2022-11-26T04:26:55.584Z,50.64
2022-11-26T04:27:55.570Z,50.24
2022-11-26T04:28:56.766Z,49.16
2022-11-26T04:29:55.555Z,49.92
2022-11-26T04:30:55.547Z,51.29
2022-11-26T04:31:55.566Z,58.37
2022-11-26T04:32:55.546Z,56.52
2022-11-26T04:33:55.520Z,50.47
2022-11-26T04:34:55.560Z,50.04
2022-11-26T04:35:55.517Z,46.15
2022-11-26T04:36:55.508Z,50.60
2022-11-26T04:37:55.492Z,49.30
2022-11-26T04:38:55.509Z,48.05
2022-11-26T04:39:55.500Z,51.16
2022-11-26T04:40:55.484Z,54.99
2022-11-26T04:41:55.483Z,60.14
2022-11-26T04:42:55.473Z,54.54
2022-11-26T04:43:55.458Z,51.34
2022-11-26T04:44:55.492Z,49.61
2022-11-26T04:45:55.598Z,48.38
2022-11-26T04:46:55.459Z,48.69
2022-11-26T04:47:55.439Z,49.51
2022-11-26T04:48:55.430Z,49.93
2022-11-26T04:49:55.443Z,48.85
2022-11-26T04:50:55.439Z,48.00
2022-11-26T04:51:55.402Z,49.82
2022-11-26T04:52:55.421Z,48.13
2022-11-26T04:53:55.844Z,48.74
2022-11-26T04:54:55.406Z,48.76
2022-11-26T04:55:55.393Z,47.93
2022-11-26T04:56:55.377Z,49.14
2022-11-26T04:57:55.374Z,47.91
2022-11-26T04:58:55.362Z,47.27
2022-11-26T04:59:55.350Z,46.89
2022-11-26T05:00:55.432Z,45.47
2022-11-26T05:01:55.976Z,46.50
2022-11-26T05:02:55.445Z,46.61
2022-11-26T05:03:55.332Z,46.70
2022-11-26T05:04:55.371Z,46.73
2022-11-26T05:05:55.332Z,47.67
2022-11-26T05:06:55.336Z,47.67
2022-11-26T05:07:55.374Z,49.38
2022-11-26T05:08:55.315Z,49.14
2022-11-26T05:09:55.293Z,50.35
2022-11-26T05:10:56.021Z,49.90
2022-11-26T05:11:55.271Z,49.95
2022-11-26T05:12:55.292Z,52.22
2022-11-26T05:13:55.266Z,50.08
2022-11-26T05:14:55.273Z,47.25
2022-11-26T05:15:55.267Z,49.70
2022-11-26T05:16:55.591Z,46.67
2022-11-26T05:17:56.176Z,46.36
2022-11-26T05:18:55.244Z,45.81
2022-11-26T05:19:55.216Z,45.50
2022-11-26T05:20:55.232Z,47.83
2022-11-26T05:21:55.209Z,49.89
2022-11-26T05:22:55.245Z,49.14
2022-11-26T05:23:55.206Z,50.18
2022-11-26T05:24:55.199Z,47.99
2022-11-26T05:25:55.180Z,48.94
2022-11-26T05:26:57.200Z,47.32
2022-11-26T05:27:55.179Z,49.14
2022-11-26T05:28:55.185Z,50.89
2022-11-26T05:29:55.329Z,53.33
2022-11-26T05:30:55.155Z,49.90
2022-11-26T05:31:55.207Z,50.42
2022-11-26T05:32:55.164Z,49.59
2022-11-26T05:33:55.131Z,48.47
2022-11-26T05:35:00.051Z,48.48
2022-11-26T05:35:55.122Z,52.20
2022-11-26T05:36:55.120Z,50.19
2022-11-26T05:37:55.107Z,49.70
2022-11-26T05:38:55.119Z,46.85
2022-11-26T05:39:55.085Z,48.91
2022-11-26T05:40:55.095Z,48.82
2022-11-26T05:41:55.080Z,46.47
2022-11-26T05:42:55.082Z,44.83
2022-11-26T05:43:55.053Z,45.35
2022-11-26T05:44:55.078Z,46.03
2022-11-26T05:45:55.197Z,45.17
2022-11-26T05:46:55.056Z,44.51
2022-11-26T05:47:55.039Z,45.35
2022-11-26T05:48:55.027Z,47.75
2022-11-26T05:49:55.040Z,45.90
2022-11-26T05:50:55.695Z,46.50
2022-11-26T05:51:55.001Z,47.06
2022-11-26T05:52:55.023Z,47.97
2022-11-26T05:53:54.990Z,49.42
2022-11-26T05:54:55.034Z,46.86
2022-11-26T05:55:55.800Z,48.24
2022-11-26T05:56:59.901Z,45.92
2022-11-26T05:57:55.982Z,45.82
2022-11-26T05:58:54.963Z,47.64
2022-11-26T05:59:55.151Z,46.18
2022-11-26T06:00:54.965Z,47.14
2022-11-26T06:01:54.982Z,48.41
2022-11-26T06:02:55.105Z,48.72
2022-11-26T06:03:54.990Z,45.16
2022-11-26T06:04:54.927Z,44.30
2022-11-26T06:05:54.921Z,44.02
2022-11-26T06:06:54.929Z,44.72
2022-11-26T06:07:55.058Z,45.15
2022-11-26T06:08:54.930Z,46.33
2022-11-26T06:09:54.892Z,45.75
2022-11-26T06:10:54.932Z,47.48
2022-11-26T06:11:54.880Z,51.40
2022-11-26T06:12:54.870Z,48.99
2022-11-26T06:13:55.658Z,47.56
2022-11-26T06:14:54.869Z,47.52
2022-11-26T06:15:54.850Z,48.78
2022-11-26T06:16:54.911Z,49.72
2022-11-26T06:17:55.201Z,49.88
2022-11-26T06:18:54.835Z,50.81
2022-11-26T06:19:54.812Z,49.10
2022-11-26T06:20:54.816Z,54.92
2022-11-26T06:21:54.821Z,50.88
2022-11-26T06:23:01.889Z,50.82
2022-11-26T06:23:59.289Z,51.32
2022-11-26T06:24:54.792Z,52.08
2022-11-26T06:25:54.798Z,52.72
2022-11-26T06:26:54.803Z,53.32
2022-11-26T06:27:54.927Z,51.23
2022-11-26T06:28:54.760Z,55.46
2022-11-26T06:29:54.782Z,53.18
2022-11-26T06:30:54.752Z,52.04
2022-11-26T06:31:54.863Z,53.48
2022-11-26T06:32:54.745Z,50.16
2022-11-26T06:33:54.751Z,53.45
2022-11-26T06:34:54.882Z,52.18
2022-11-26T06:35:54.711Z,50.80
2022-11-26T06:36:54.697Z,51.28
2022-11-26T06:37:54.717Z,52.03
2022-11-26T06:38:54.692Z,51.03
2022-11-26T06:39:54.931Z,52.26
2022-11-26T06:40:54.683Z,52.19
2022-11-26T06:41:54.674Z,52.29
2022-11-26T06:42:54.712Z,52.80
2022-11-26T06:43:54.672Z,54.05
2022-11-26T06:44:58.440Z,53.32
2022-11-26T06:45:55.708Z,51.35
2022-11-26T06:46:54.650Z,54.42
2022-11-26T06:47:54.633Z,52.39
2022-11-26T06:48:54.630Z,51.41
2022-11-26T06:49:54.635Z,53.59
2022-11-26T06:50:54.610Z,53.74
2022-11-26T06:51:54.630Z,51.51
2022-11-26T06:52:54.602Z,53.47
2022-11-26T06:53:54.583Z,54.24
2022-11-26T06:54:54.584Z,52.70
2022-11-26T06:55:54.570Z,53.66
2022-11-26T06:56:54.554Z,53.77
2022-11-26T06:57:54.812Z,53.40
2022-11-26T06:58:54.718Z,53.22
2022-11-26T06:59:54.537Z,52.42
2022-11-26T07:00:54.760Z,52.76
2022-11-26T07:01:54.643Z,57.53
2022-11-26T07:02:55.419Z,58.03
2022-11-26T07:03:54.587Z,54.94
2022-11-26T07:04:54.547Z,57.47
2022-11-26T07:05:54.494Z,68.23
2022-11-26T07:06:54.732Z,69.49
2022-11-26T07:07:54.587Z,67.98
2022-11-26T07:08:54.486Z,62.89
2022-11-26T07:09:54.490Z,57.56
2022-11-26T07:10:54.463Z,57.00
2022-11-26T07:11:54.545Z,59.64
2022-11-26T07:12:54.478Z,60.82
2022-11-26T07:13:54.967Z,64.39
2022-11-26T07:14:54.464Z,58.64
2022-11-26T07:15:55.631Z,59.51
2022-11-26T07:16:54.442Z,61.05
2022-11-26T07:17:55.147Z,69.23
2022-11-26T07:19:00.924Z,66.59
2022-11-26T07:19:55.401Z,59.16
2022-11-26T07:20:54.409Z,61.84
2022-11-26T07:21:54.405Z,62.57
2022-11-26T07:22:54.404Z,60.32
2022-11-26T07:23:54.440Z,62.14
2022-11-26T07:24:54.402Z,62.27
2022-11-26T07:25:54.375Z,63.08
2022-11-26T07:26:54.381Z,63.02
2022-11-26T07:27:54.350Z,62.65
2022-11-26T07:28:54.370Z,62.67
2022-11-26T07:29:54.433Z,63.04
2022-11-26T07:30:54.384Z,63.78
2022-11-26T07:31:54.436Z,63.25
2022-11-26T07:32:54.353Z,63.36
2022-11-26T07:33:54.359Z,63.15
2022-11-26T07:34:55.007Z,64.02
2022-11-26T07:35:54.319Z,65.33
2022-11-26T07:36:58.066Z,65.35
2022-11-26T07:37:54.287Z,64.54
2022-11-26T07:38:54.602Z,64.34
2022-11-26T07:39:55.979Z,64.53
2022-11-26T07:40:54.280Z,63.38
2022-11-26T07:41:54.341Z,64.40
2022-11-26T07:42:54.268Z,63.31
2022-11-26T07:43:54.267Z,63.74
2022-11-26T07:44:54.272Z,63.18
2022-11-26T07:45:54.290Z,65.17
2022-11-26T07:46:54.271Z,61.08
2022-11-26T07:47:55.424Z,60.74
2022-11-26T07:48:54.243Z,62.12
2022-11-26T07:49:55.242Z,62.80
2022-11-26T07:50:54.227Z,60.81
2022-11-26T07:51:54.195Z,61.82
2022-11-26T07:52:55.356Z,61.36
2022-11-26T07:53:54.198Z,69.07
2022-11-26T07:54:54.219Z,62.34
2022-11-26T07:55:54.212Z,61.91
2022-11-26T07:56:55.837Z,63.88
2022-11-26T07:57:54.168Z,64.89
2022-11-26T07:58:54.172Z,62.99
2022-11-26T07:59:54.341Z,63.81
2022-11-26T08:00:55.022Z,63.17
2022-11-26T08:01:54.169Z,65.50
2022-11-26T08:02:54.316Z,64.58
2022-11-26T08:03:54.128Z,63.07
2022-11-26T08:04:54.127Z,61.88
2022-11-26T08:05:54.112Z,61.81
2022-11-26T08:06:54.112Z,59.82
2022-11-26T08:07:54.158Z,59.69
2022-11-26T08:08:54.091Z,58.65
2022-11-26T08:09:54.127Z,61.50
2022-11-26T08:10:54.099Z,62.98
2022-11-26T08:11:54.076Z,59.94
2022-11-26T08:12:54.091Z,56.67
2022-11-26T08:13:54.059Z,60.84
2022-11-26T08:14:54.130Z,64.51
2022-11-26T08:15:54.082Z,59.68
2022-11-26T08:16:54.214Z,58.90
2022-11-26T08:17:54.031Z,64.58
2022-11-26T08:18:54.080Z,58.85
2022-11-26T08:19:54.009Z,63.44
2022-11-26T08:20:54.033Z,61.15
2022-11-26T08:21:54.007Z,57.61
2022-11-26T08:22:54.300Z,63.15
2022-11-26T08:23:53.995Z,61.58
2022-11-26T08:24:54.019Z,60.02
2022-11-26T08:26:20.391Z,60.71
2022-11-26T08:26:54.987Z,59.22
2022-11-26T08:27:53.948Z,59.95
2022-11-26T08:28:53.951Z,59.45
2022-11-26T08:29:53.950Z,58.96
2022-11-26T08:30:53.943Z,59.58
2022-11-26T08:31:54.613Z,58.95
2022-11-26T08:32:53.984Z,56.32
2022-11-26T08:33:53.912Z,56.27
2022-11-26T08:34:53.944Z,60.23
2022-11-26T08:36:06.793Z,55.41
2022-11-26T08:36:55.762Z,64.18
2022-11-26T08:37:53.896Z,55.33
2022-11-26T08:38:53.904Z,54.87
2022-11-26T08:39:53.873Z,54.92
2022-11-26T08:40:53.877Z,54.60
2022-11-26T08:41:54.289Z,56.96
2022-11-26T08:42:53.864Z,56.20
2022-11-26T08:44:09.645Z,56.75
2022-11-26T08:44:54.863Z,57.90
2022-11-26T08:45:54.070Z,58.68
2022-11-26T08:46:54.843Z,67.61
2022-11-26T08:47:53.922Z,62.24
2022-11-26T08:48:53.820Z,60.54
2022-11-26T08:49:53.850Z,69.94
2022-11-26T08:50:53.848Z,71.22
2022-11-26T08:51:53.815Z,70.40
2022-11-26T08:52:54.709Z,74.26
2022-11-26T08:53:53.810Z,68.71
2022-11-26T08:54:53.779Z,69.14
2022-11-26T08:56:00.502Z,71.12
2022-11-26T08:56:55.499Z,70.85
2022-11-26T08:57:53.753Z,71.58
2022-11-26T08:58:53.759Z,71.59
2022-11-26T08:59:53.739Z,72.36
2022-11-26T09:00:53.893Z,73.08
2022-11-26T09:01:54.803Z,70.24
2022-11-26T09:02:53.758Z,72.00
2022-11-26T09:03:53.725Z,74.13
2022-11-26T09:04:54.236Z,72.13
2022-11-26T09:05:53.707Z,71.54
2022-11-26T09:06:53.736Z,71.69
2022-11-26T09:07:53.698Z,70.26
2022-11-26T09:08:54.777Z,73.22
2022-11-26T09:09:53.686Z,74.36
2022-11-26T09:10:53.675Z,80.24
2022-11-26T09:11:53.670Z,72.92
2022-11-26T09:12:53.672Z,68.36
2022-11-26T09:13:54.426Z,80.52
2022-11-26T09:14:53.710Z,81.19
2022-11-26T09:15:53.635Z,80.99
2022-11-26T09:16:53.701Z,80.74
2022-11-26T09:17:53.644Z,70.73
2022-11-26T09:18:54.531Z,74.24
2022-11-26T09:19:53.625Z,77.97
2022-11-26T09:20:57.128Z,76.55
2022-11-26T09:21:53.636Z,73.36
2022-11-26T09:22:53.619Z,82.52
2022-11-26T09:23:53.603Z,77.63
2022-11-26T09:24:53.586Z,77.98
2022-11-26T09:25:54.818Z,80.13
2022-11-26T09:26:53.559Z,80.67
2022-11-26T09:27:53.667Z,79.31
2022-11-26T09:28:53.687Z,75.61
2022-11-26T09:29:53.552Z,66.72
2022-11-26T09:30:53.596Z,68.02
2022-11-26T09:32:24.049Z,65.30
2022-11-26T09:32:54.590Z,65.56
2022-11-26T09:33:53.593Z,61.13
2022-11-26T09:34:53.506Z,64.59
2022-11-26T09:35:53.507Z,59.94
2022-11-26T09:36:53.505Z,59.75
2022-11-26T09:37:53.582Z,65.81
2022-11-26T09:38:53.501Z,58.52
2022-11-26T09:39:54.055Z,59.83
2022-11-26T09:40:53.505Z,59.86
2022-11-26T09:41:53.504Z,63.61
2022-11-26T09:42:53.463Z,58.13
2022-11-26T09:43:53.618Z,56.60
2022-11-26T09:44:57.028Z,68.40
2022-11-26T09:45:53.588Z,59.67
2022-11-26T09:47:11.099Z,62.65
2022-11-26T09:47:54.417Z,60.74
2022-11-26T09:48:53.415Z,62.25
2022-11-26T09:49:53.416Z,67.12
2022-11-26T09:50:53.419Z,62.16
2022-11-26T09:51:53.449Z,60.98
2022-11-26T09:52:53.376Z,59.15
2022-11-26T09:53:53.376Z,58.98
2022-11-26T09:54:53.402Z,59.03
2022-11-26T09:55:53.386Z,60.68
2022-11-26T09:56:53.347Z,62.11
2022-11-26T09:57:53.367Z,63.48
2022-11-26T09:58:54.002Z,61.81
2022-11-26T09:59:53.334Z,55.13
2022-11-26T10:00:53.381Z,54.79
2022-11-26T10:01:53.363Z,58.75
2022-11-26T10:02:53.318Z,56.04
2022-11-26T10:03:53.859Z,55.20
2022-11-26T10:04:53.303Z,66.76
2022-11-26T10:05:53.314Z,71.19
2022-11-26T10:06:53.293Z,70.17
2022-11-26T10:07:53.361Z,70.76
2022-11-26T10:08:53.444Z,70.76
2022-11-26T10:09:53.281Z,71.37
2022-11-26T10:10:53.320Z,72.42
2022-11-26T10:11:53.287Z,71.55
2022-11-26T10:13:17.375Z,66.97
2022-11-26T10:13:54.262Z,66.69
2022-11-26T10:14:53.237Z,67.27
2022-11-26T10:15:53.225Z,71.54
2022-11-26T10:16:53.326Z,68.05
2022-11-26T10:17:53.211Z,63.64
2022-11-26T10:18:53.761Z,64.69
2022-11-26T10:19:53.220Z,68.50
2022-11-26T10:20:53.196Z,64.99
2022-11-26T10:22:00.485Z,63.46
2022-11-26T10:22:57.298Z,57.54
2022-11-26T10:23:53.179Z,62.98
2022-11-26T10:24:53.174Z,70.68
2022-11-26T10:25:53.167Z,73.25
2022-11-26T10:26:53.170Z,75.03
2022-11-26T10:27:53.139Z,71.55
2022-11-26T10:28:53.137Z,72.70
2022-11-26T10:29:53.133Z,77.24
2022-11-26T10:30:53.127Z,74.38
2022-11-26T10:31:53.243Z,71.75
2022-11-26T10:32:53.362Z,69.78
2022-11-26T10:33:57.870Z,72.89
2022-11-26T10:34:53.141Z,72.58
2022-11-26T10:35:53.102Z,70.66
2022-11-26T10:36:53.091Z,68.56
2022-11-26T10:37:53.112Z,67.68
2022-11-26T10:38:53.120Z,68.92
2022-11-26T10:39:58.609Z,67.79
2022-11-26T10:40:54.035Z,67.52
2022-11-26T10:41:53.057Z,68.48
2022-11-26T10:42:53.061Z,70.02
2022-11-26T10:43:53.069Z,70.57
2022-11-26T10:44:53.018Z,69.14
2022-11-26T10:45:53.133Z,51.46
2022-11-26T10:46:53.065Z,52.38
2022-11-26T10:47:53.015Z,54.49
2022-11-26T10:48:53.321Z,56.10
2022-11-26T10:49:52.985Z,56.47
2022-11-26T10:50:53.277Z,60.66
2022-11-26T10:51:52.980Z,67.71
2022-11-26T10:52:52.954Z,58.26
2022-11-26T10:53:53.929Z,67.79
2022-11-26T10:54:52.943Z,68.03
2022-11-26T10:55:52.949Z,62.52
2022-11-26T10:56:53.004Z,73.75
2022-11-26T10:57:52.979Z,71.20
2022-11-26T10:58:52.992Z,67.50
2022-11-26T10:59:52.916Z,66.48
2022-11-26T11:00:53.001Z,68.82
2022-11-26T11:01:56.186Z,71.19
2022-11-26T11:02:52.920Z,70.37
2022-11-26T11:04:07.898Z,64.76
2022-11-26T11:04:53.878Z,63.72
2022-11-26T11:05:53.399Z,67.63
2022-11-26T11:06:52.854Z,56.40
2022-11-26T11:07:52.951Z,63.18
2022-11-26T11:08:53.705Z,63.97
2022-11-26T11:09:52.860Z,64.39
2022-11-26T11:10:53.376Z,64.40
2022-11-26T11:11:53.891Z,64.65
2022-11-26T11:12:52.852Z,67.36
2022-11-26T11:13:55.429Z,67.93
2022-11-26T11:14:52.900Z,68.03
2022-11-26T11:15:52.811Z,64.19
2022-11-26T11:16:52.856Z,67.16
2022-11-26T11:17:53.244Z,52.84
2022-11-26T11:18:52.848Z,52.39
2022-11-26T11:19:52.769Z,52.74
2022-11-26T11:20:52.790Z,52.17
2022-11-26T11:21:52.753Z,52.46
2022-11-26T11:22:57.533Z,52.67
2022-11-26T11:24:08.070Z,53.15
2022-11-26T11:24:53.834Z,60.00
2022-11-26T11:25:52.729Z,57.71
2022-11-26T11:26:52.717Z,54.02
2022-11-26T11:27:52.790Z,62.81
2022-11-26T11:28:52.714Z,57.20
2022-11-26T11:29:52.819Z,57.59
2022-11-26T11:30:52.687Z,56.80
2022-11-26T11:31:53.376Z,56.02
2022-11-26T11:32:52.718Z,56.83
2022-11-26T11:33:52.663Z,57.75
2022-11-26T11:34:52.677Z,57.19
2022-11-26T11:35:52.656Z,58.21
2022-11-26T11:36:52.657Z,69.30
2022-11-26T11:37:52.655Z,70.01
2022-11-26T11:38:52.636Z,71.22
2022-11-26T11:39:52.632Z,68.99
2022-11-26T11:40:52.641Z,68.33
2022-11-26T11:41:52.703Z,68.07
2022-11-26T11:42:52.630Z,68.19
2022-11-26T11:43:52.643Z,70.72
2022-11-26T11:44:52.595Z,67.14
2022-11-26T11:45:53.617Z,63.94
2022-11-26T11:46:52.584Z,65.10
2022-11-26T11:47:52.584Z,70.92
2022-11-26T11:48:52.556Z,71.91
2022-11-26T11:49:52.554Z,69.05
2022-11-26T11:50:52.667Z,65.03
2022-11-26T11:51:52.745Z,62.98
2022-11-26T11:52:52.549Z,62.04
2022-11-26T11:53:52.523Z,70.63
2022-11-26T11:54:52.557Z,69.80
2022-11-26T11:55:52.573Z,61.69
2022-11-26T11:56:52.568Z,58.31
2022-11-26T11:57:53.444Z,58.28
2022-11-26T11:58:52.524Z,59.46
2022-11-26T11:59:52.485Z,62.17
2022-11-26T12:00:52.510Z,72.08
2022-11-26T12:01:52.609Z,76.99
2022-11-26T12:02:52.497Z,64.20
2022-11-26T12:03:52.646Z,68.92
2022-11-26T12:04:52.600Z,67.86
2022-11-26T12:05:52.569Z,69.10
2022-11-26T12:06:52.452Z,70.34
2022-11-26T12:07:52.492Z,60.76
2022-11-26T12:08:52.511Z,62.16
2022-11-26T12:09:52.482Z,70.30
2022-11-26T12:10:52.436Z,81.86
2022-11-26T12:11:52.396Z,86.36
2022-11-26T12:12:52.439Z,86.10
2022-11-26T12:13:52.377Z,83.51
2022-11-26T12:14:52.448Z,86.45
2022-11-26T12:15:52.375Z,87.38
2022-11-26T12:16:53.651Z,83.68
2022-11-26T12:17:52.416Z,76.51
2022-11-26T12:18:52.359Z,75.56
2022-11-26T12:19:52.403Z,76.17
2022-11-26T12:20:52.892Z,74.79
2022-11-26T12:21:52.334Z,76.06
2022-11-26T12:22:52.367Z,72.42
2022-11-26T12:23:52.397Z,71.04
2022-11-26T12:24:52.359Z,71.72
2022-11-26T12:25:52.355Z,70.85
2022-11-26T12:26:52.314Z,70.83
2022-11-26T12:27:52.333Z,75.34
2022-11-26T12:28:52.312Z,71.53
2022-11-26T12:29:52.321Z,69.66
2022-11-26T12:30:52.294Z,69.91
2022-11-26T12:31:53.258Z,69.77
2022-11-26T12:32:52.283Z,69.48
2022-11-26T12:33:52.297Z,69.40
2022-11-26T12:34:52.253Z,69.39
2022-11-26T12:35:52.296Z,70.62
2022-11-26T12:36:53.804Z,71.24
2022-11-26T12:37:52.253Z,70.45
2022-11-26T12:38:52.213Z,69.82
2022-11-26T12:39:54.079Z,69.86
2022-11-26T12:40:52.316Z,69.82
2022-11-26T12:41:52.211Z,71.31
2022-11-26T12:42:52.204Z,71.59
2022-11-26T12:43:52.248Z,69.69
2022-11-26T12:44:52.184Z,69.68
2022-11-26T12:45:53.523Z,72.82
2022-11-26T12:46:52.391Z,71.88
2022-11-26T12:47:52.299Z,69.44
2022-11-26T12:48:52.184Z,71.18
2022-11-26T12:49:52.166Z,69.94
2022-11-26T12:50:52.208Z,69.23
2022-11-26T12:51:52.163Z,69.38
2022-11-26T12:52:52.123Z,72.06